Flight Track Log - Related Links

Times and Time Zones

All times are in EDT time to prevent confusion due to time zone crossing. See the SWA2139 flight status page for this flight to view local times or setup timezone preferences in your user account.

Time Position Orientation Groundspeed Altitude Reporting Facility
EDT Latitude Longitude Course Direction KTS MPH feet Rate Location/Type
Fri 08:28:11 AM 30.1942 -97.7606 284° West 273 314 6,200  Level Houston Center
Fri 08:29:13 AM 30.2497 -97.8275 314° West 281 323 10,500 3,919 Climbing Houston Center
Fri 08:30:15 AM 30.2689 -97.9442 281° West 322 371 14,300 3,512 Climbing Houston Center
Fri 08:31:16 AM 30.2894 -98.0483 283° West 331 381 17,700 3,024 Climbing Houston Center
Fri 08:32:00 AM 30.3440 -98.3518 284° West  Level Estimated
Fri 08:32:18 AM 30.3131 -98.1567 284° West 346 398 20,500  Level Houston Center
Fri 08:33:00 AM 30.3689 -98.4670 284° West  Level Estimated
Fri 08:33:19 AM 30.3353 -98.2631 284° West 364 419 23,000  Level Houston Center
Fri 08:34:21 AM 30.3594 -98.3831 283° West 375 432 25,400 2,323 Climbing Houston Center
Fri 08:35:23 AM 30.3892 -98.5269 284° West 389 448 27,800 2,146 Climbing Houston Center
Fri 08:36:24 AM 30.4144 -98.6539 283° West 398 458 29,800 1,902 Climbing Houston Center
Fri 08:37:26 AM 30.4414 -98.7828 284° West 407 468 31,700 2,032 Climbing Houston Center
Fri 08:38:28 AM 30.4636 -98.9094 282° West 398 458 34,000 2,049 Climbing Houston Center
Fri 08:39:29 AM 30.4897 -99.0342 284° West 395 455 35,900 976 Climbing Houston Center
Fri 08:40:31 AM 30.5128 -99.1475 283° West 391 450 36,000 48 Climbing Houston Center
Fri 08:41:33 AM 30.5372 -99.2694 283° West 389 448 36,000  Level Houston Center
Fri 08:42:34 AM 30.5669 -99.4147 283° West 388 447 36,000  Level Houston Center
Fri 08:43:36 AM 30.5911 -99.5372 283° West 391 450 36,000  Level Houston Center
Fri 08:44:38 AM 30.6153 -99.6575 283° West 385 443 36,000  Level Houston Center
Fri 08:45:39 AM 30.6392 -99.7797 283° West 389 448 36,000  Level Houston Center
Fri 08:46:41 AM 30.6622 -99.9017 282° West 388 447 36,000  Level Houston Center
Fri 08:47:43 AM 30.6872 -100.0253 283° West 395 455 36,000  Level Houston Center
Fri 08:48:44 AM 30.7144 -100.1694 282° West 382 440 36,000  Level Houston Center
Fri 08:49:46 AM 30.7381 -100.2928 283° West 385 443 36,000  Level Houston Center
Fri 08:50:48 AM 30.7611 -100.4142 282° West 387 445 36,000  Level Houston Center
Fri 08:51:49 AM 30.7856 -100.5372 283° West 391 450 36,000  Level Houston Center
Fri 08:52:51 AM 30.8075 -100.6586 282° West 383 441 36,000  Level Houston Center
Fri 08:53:53 AM 30.8325 -100.7781 284° West 381 438 36,000  Level Houston Center
Fri 08:54:55 AM 30.8575 -100.9281 281° West 384 442 36,000  Level Houston Center
Fri 08:55:57 AM 30.8803 -101.0531 282° West 386 444 36,000  Level Houston Center
Fri 08:56:58 AM 30.9036 -101.1753 283° West 386 444 36,000  Level Houston Center
Fri 08:58:00 AM 30.9261 -101.2967 282° West 385 443 36,000  Level Houston Center
Fri 08:59:02 AM 30.9456 -101.4206 280° West 390 449 36,000  Level Houston Center
Fri 09:00:04 AM 30.9667 -101.5458 281° West 391 450 36,000  Level Houston Center
Fri 09:01:06 AM 30.9939 -101.6944 282° West 392 451 36,000  Level Houston Center
Fri 09:02:08 AM 31.0161 -101.8178 282° West 391 450 36,000  Level Houston Center
Fri 09:03:09 AM 31.0386 -101.9408 282° West 389 448 36,000  Level Houston Center
Fri 09:04:11 AM 31.0597 -102.0653 281° West 389 448 36,000  Level Houston Center
Fri 09:05:13 AM 31.0819 -102.1908 282° West 401 461 36,000  Level Houston Center
Fri 09:06:15 AM 31.1017 -102.3161 280° West 394 453 36,000  Level Houston Center
Fri 09:07:17 AM 31.1231 -102.4428 281° West 392 451 36,000  Level Houston Center
Fri 09:08:19 AM 31.1450 -102.5664 282° West 386 444 36,000  Level Houston Center
Fri 09:09:21 AM 31.1664 -102.6886 282° West 384 442 36,000  Level Houston Center
Fri 09:10:23 AM 31.1922 -102.8367 282° West 385 443 36,000  Level Houston Center
Fri 09:11:25 AM 31.2136 -102.9597 282° West 386 444 36,000  Level Houston Center
Fri 09:12:27 AM 31.2344 -103.0828 281° West 386 444 36,000  Level Houston Center
Fri 09:13:29 AM 31.2536 -103.2069 280° West 388 447 36,000  Level Houston Center
Fri 09:14:31 AM 31.2756 -103.3303 282° West 389 448 36,000  Level Houston Center
Fri 09:15:36 AM 31.2967 -103.4786 279° West 389 448 36,000 -480 Level Albuquerque Center
Fri 09:16:36 AM 31.3158 -103.6011 280° West 387 445 35,000 -984 Descending Albuquerque Center
Fri 09:17:38 AM 31.3358 -103.7206 281° West 379 436 34,000 -976 Descending Albuquerque Center
Fri 09:18:39 AM 31.3553 -103.8308 282° West 375 432 33,000 -934 Descending Albuquerque Center
Fri 09:19:40 AM 31.3733 -103.9500 280° West 374 430 32,100 -958 Descending Albuquerque Center
Fri 09:20:38 AM 31.3928 -104.0703 281° West 377 434 31,100 -958 Descending Albuquerque Center
Fri 09:21:39 AM 31.4114 -104.1914 280° West 379 436 30,200 -532 Descending Albuquerque Center
Fri 09:22:42 AM 31.4317 -104.3158 281° West 388 447 30,000 -99 Descending Albuquerque Center
Fri 09:23:40 AM 31.4511 -104.4417 280° West 394 453 30,000  Level Albuquerque Center
Fri 09:24:42 AM 31.4672 -104.5917 277° West 391 450 30,000  Level Albuquerque Center
Fri 09:25:44 AM 31.4806 -104.7161 277° West 389 448 30,000  Level Albuquerque Center
Fri 09:26:43 AM 31.4936 -104.8422 277° West 391 450 30,000 -49 Level Albuquerque Center
Fri 09:27:46 AM 31.5072 -104.9672 277° West 390 449 29,900 -1,152 Descending Albuquerque Center
Fri 09:28:48 AM 31.5183 -105.0931 276° West 391 450 27,600 -2,311 Descending Albuquerque Center
Fri 09:29:48 AM 31.5317 -105.2175 277° West 389 448 25,200 -2,529 Descending Albuquerque Center
Fri 09:30:49 AM 31.5442 -105.3433 277° West 391 450 22,500 -2,557 Descending Albuquerque Center
Fri 09:31:50 AM 31.5558 -105.4611 277° West 368 423 20,000 -2,710 Descending Albuquerque Center
Fri 09:32:22 AM 31.5622 -105.5442 275° West 350 403 18,300 -2,400 Descending Albuquerque Center
Fri 09:32:50 AM 31.5656 -105.5739 278° West 352 405 17,600 -2,323 Descending Albuquerque Center
Fri 09:33:24 AM 31.5722 -105.6542 276° West 342 394 15,900 -2,361 Descending Albuquerque Center
Fri 09:33:51 AM 31.5761 -105.6819 279° West 339 390 15,200 -2,361 Descending Albuquerque Center
Fri 09:34:25 AM 31.5839 -105.7608 277° West 331 381 13,500 -2,800 Descending Albuquerque Center
Fri 09:34:51 AM 31.5906 -105.8089 279° West 329 379 12,400 -2,262 Descending Albuquerque Center
Fri 09:35:26 AM 31.6167 -105.8575 302° West 317 365 11,200 -1,935 Descending Albuquerque Center
Fri 09:35:53 AM 31.6372 -105.8975 301° West 317 365 10,400 -1,100 Descending Albuquerque Center
Fri 09:36:26 AM 31.6581 -105.9419 299° West 298 343 10,100 -900 Descending Albuquerque Center
Fri 09:36:53 AM 31.6756 -105.9753 302° West 276 318 9,500 -1,322 Descending Albuquerque Center
Fri 09:37:25 AM 31.6950 -106.0150 300° West 250 288 8,800 -1,258 Descending Albuquerque Center
Fri 09:37:55 AM 31.7147 -106.0439 309° West 255 293 8,200 -1,182 Descending Albuquerque Center
Fri 09:38:31 AM 31.7442 -106.0850 310° West 234 269 7,500 -1,082 Descending Albuquerque Center
Fri 09:38:56 AM 31.7561 -106.1000 313° West 230 265 7,100 -563 Descending Albuquerque Center
Fri 09:39:35 AM 31.7797 -106.1386 306° West 208 239 6,900 -300 Descending Albuquerque Center
Fri 09:39:56 AM 31.7900 -106.1519 312° West 202 232 6,800 -111 Descending Albuquerque Center
Fri 09:40:29 AM 31.7914 -106.1906 272° West 188 216 6,800 -381 Level Albuquerque Center
Fri 09:40:59 AM 31.7931 -106.2125 275° West 186 214 6,400 -1,000 Descending Albuquerque Center
Fri 09:41:41 AM 31.7944 -106.2547 272° West 168 193 5,600 -885 Descending Albuquerque Center
Fri 09:42:00 AM 31.7958 -106.2681 277° West 172 198 5,500 -667 Descending Albuquerque Center
Fri 09:42:35 AM 31.7975 -106.3064 273° West 163 188 5,000 -915 Descending Albuquerque Center
Fri 09:42:59 AM 31.7986 -106.3208 275° West 161 185 4,600 -806 Descending Albuquerque Center
Fri 09:43:42 AM 31.7997 -106.3533 272° West 106 122 4,100 -689 Descending Albuquerque Center
Fri 09:44:00 AM 31.8017 -106.3644 282° West 117 135 3,900 -667 Descending Albuquerque Center
Fri 09:45:00 AM 31.8000 -106.3667 North  Level FlightAware Approximate
Fri 09:52:00 AM 31.8072 -106.3764 North  Level Estimated
Fri 09:53:00 AM 31.8072 -106.3764 North  Level Estimated
Fri 09:54:00 AM 31.8072 -106.3764 North  Level Estimated
Fri 09:55:00 AM 31.8072 -106.3764 North  Level Estimated
Fri 09:56:00 AM 31.8072 -106.3764 North  Level Estimated

Login

Don't have an account? Register now (free) for customized features, flight alerts, and more!